createdAt,value
2022-12-06T00:01:20.679Z,18.57
2022-12-06T00:03:52.776Z,19.30
2022-12-06T00:06:24.947Z,15.83
2022-12-06T00:08:52.532Z,17.20
2022-12-06T00:11:21.667Z,15.77
2022-12-06T00:13:52.867Z,18.93
2022-12-06T00:16:20.053Z,23.63
2022-12-06T00:18:57.470Z,26.80
2022-12-06T00:21:26.451Z,27.17
2022-12-06T00:23:55.166Z,24.43
2022-12-06T00:26:22.526Z,26.47
2022-12-06T00:28:53.107Z,27.47
2022-12-06T00:31:22.132Z,32.17
2022-12-06T00:33:49.570Z,37.40
2022-12-06T00:36:18.120Z,31.70
2022-12-06T00:38:45.267Z,32.83
2022-12-06T00:41:14.560Z,26.10
2022-12-06T00:43:42.125Z,28.00
2022-12-06T00:46:13.669Z,28.13
2022-12-06T00:48:40.727Z,27.43
2022-12-06T00:51:07.740Z,27.17
2022-12-06T00:53:34.749Z,29.90
2022-12-06T00:56:01.683Z,24.33
2022-12-06T00:58:28.765Z,31.03
2022-12-06T01:00:55.896Z,25.13
2022-12-06T01:03:24.354Z,28.30
2022-12-06T01:05:51.340Z,38.07
2022-12-06T01:08:19.029Z,31.73
2022-12-06T01:10:52.364Z,28.40
2022-12-06T01:13:19.318Z,24.33
2022-12-06T01:15:46.280Z,22.97
2022-12-06T01:18:13.179Z,23.60
2022-12-06T01:20:42.634Z,27.00
2022-12-06T01:23:09.497Z,24.03
2022-12-06T01:25:36.724Z,25.20
2022-12-06T01:28:03.919Z,24.20
2022-12-06T01:30:30.964Z,28.80
2022-12-06T01:32:57.891Z,24.83
2022-12-06T01:35:24.767Z,25.07
2022-12-06T01:37:53.070Z,21.80
2022-12-06T01:40:19.969Z,24.90
2022-12-06T01:42:47.609Z,17.47
2022-12-06T01:45:14.480Z,23.00
2022-12-06T01:47:43.240Z,23.70
2022-12-06T01:50:14.656Z,20.13
2022-12-06T01:52:50.571Z,19.70
2022-12-06T01:55:20.516Z,21.10
2022-12-06T01:57:48.179Z,20.13
2022-12-06T02:00:15.677Z,20.07
2022-12-06T02:02:42.608Z,23.23
2022-12-06T02:05:10.253Z,18.87
2022-12-06T02:07:38.382Z,20.70
2022-12-06T02:10:06.498Z,19.47
2022-12-06T02:12:34.707Z,18.00
2022-12-06T02:15:01.611Z,17.60
2022-12-06T02:17:40.638Z,17.70
2022-12-06T02:20:17.193Z,18.63
2022-12-06T02:23:07.923Z,18.63
2022-12-06T02:26:09.036Z,19.83
2022-12-06T02:29:09.176Z,22.03
2022-12-06T02:31:41.736Z,18.03
2022-12-06T02:34:14.530Z,16.47
2022-12-06T02:36:47.647Z,21.70
2022-12-06T02:39:19.352Z,14.80
2022-12-06T02:41:53.071Z,16.43
2022-12-06T02:44:26.099Z,19.93
2022-12-06T02:46:55.798Z,20.87
2022-12-06T02:49:25.851Z,19.47
2022-12-06T02:51:54.083Z,25.10
2022-12-06T02:54:22.369Z,20.03
2022-12-06T02:56:49.198Z,22.37
2022-12-06T02:59:16.054Z,23.20
2022-12-06T03:01:45.548Z,20.40
2022-12-06T03:04:45.819Z,17.73
2022-12-06T03:07:37.656Z,22.87
2022-12-06T03:10:25.160Z,21.60
2022-12-06T03:13:01.437Z,19.40
2022-12-06T03:15:38.703Z,24.13
2022-12-06T03:18:12.100Z,18.30
2022-12-06T03:20:44.680Z,22.33
2022-12-06T03:23:15.050Z,20.17
2022-12-06T03:25:43.739Z,20.67
2022-12-06T03:28:14.348Z,18.50
2022-12-06T03:30:44.452Z,16.33
2022-12-06T03:33:14.478Z,13.97
2022-12-06T03:35:44.571Z,15.93
2022-12-06T03:38:16.811Z,18.97
2022-12-06T03:40:47.499Z,19.93
2022-12-06T03:43:14.926Z,23.33
2022-12-06T03:45:46.626Z,19.43
2022-12-06T03:48:16.640Z,18.10
2022-12-06T03:50:50.201Z,16.17
2022-12-06T03:53:20.981Z,19.20
2022-12-06T03:55:47.879Z,15.50
2022-12-06T03:58:14.763Z,18.17
2022-12-06T04:00:41.605Z,18.87
2022-12-06T04:03:08.547Z,19.20
2022-12-06T04:05:35.358Z,18.13
2022-12-06T04:08:04.152Z,14.57
2022-12-06T04:10:31.086Z,16.87
2022-12-06T04:12:57.957Z,16.23
2022-12-06T04:15:24.816Z,14.83
2022-12-06T04:17:51.673Z,15.27
2022-12-06T04:20:18.573Z,17.50
2022-12-06T04:22:45.391Z,14.27
2022-12-06T04:25:13.601Z,16.10
2022-12-06T04:27:40.415Z,14.47
2022-12-06T04:30:08.938Z,14.13
2022-12-06T04:32:35.768Z,13.97
2022-12-06T04:35:02.702Z,13.87
2022-12-06T04:37:29.625Z,15.70
2022-12-06T04:39:56.390Z,16.07
2022-12-06T04:42:24.605Z,14.00
2022-12-06T04:44:51.595Z,12.23
2022-12-06T04:47:18.519Z,15.10
2022-12-06T04:49:45.344Z,14.73
2022-12-06T04:52:12.733Z,12.83
2022-12-06T04:54:39.987Z,13.47
2022-12-06T04:57:07.252Z,13.90
2022-12-06T04:59:35.504Z,10.37
2022-12-06T05:02:02.438Z,12.90
2022-12-06T05:04:29.250Z,10.93
2022-12-06T05:06:56.111Z,11.27
2022-12-06T05:09:23.135Z,13.20
2022-12-06T05:11:50.071Z,13.37
2022-12-06T05:14:16.975Z,14.17
2022-12-06T05:16:45.279Z,11.77
2022-12-06T05:19:13.147Z,13.67
2022-12-06T05:21:40.281Z,19.27
2022-12-06T05:24:07.819Z,14.40
2022-12-06T05:26:34.734Z,9.03
2022-12-06T05:29:01.628Z,10.97
2022-12-06T05:31:28.543Z,11.83
2022-12-06T05:33:56.840Z,19.17
2022-12-06T05:36:25.723Z,13.50
2022-12-06T05:38:53.172Z,9.77
2022-12-06T05:41:20.667Z,13.23
2022-12-06T05:43:47.588Z,16.27
2022-12-06T05:46:14.708Z,14.67
2022-12-06T05:48:41.651Z,18.13
2022-12-06T05:51:09.840Z,12.03
2022-12-06T05:53:36.713Z,10.67
2022-12-06T05:56:04.938Z,12.93
2022-12-06T05:58:31.906Z,9.77
2022-12-06T06:00:58.727Z,11.17
2022-12-06T06:03:25.596Z,13.13
2022-12-06T06:05:56.544Z,12.20
2022-12-06T06:08:24.984Z,16.70
2022-12-06T06:10:52.584Z,15.03
2022-12-06T06:13:19.841Z,10.17
2022-12-06T06:15:47.877Z,9.47
2022-12-06T06:18:15.012Z,13.57
2022-12-06T06:20:41.938Z,15.97
2022-12-06T06:23:08.778Z,16.67
2022-12-06T06:25:39.828Z,19.17
2022-12-06T06:28:06.688Z,13.33
2022-12-06T06:30:33.530Z,11.73
2022-12-06T06:33:00.364Z,12.10
2022-12-06T06:35:27.220Z,15.00
2022-12-06T06:37:54.116Z,11.03
2022-12-06T06:40:20.992Z,10.67
2022-12-06T06:42:49.201Z,11.77
2022-12-06T06:45:16.178Z,12.47
2022-12-06T06:47:43.062Z,9.40
2022-12-06T06:50:10.327Z,8.70
2022-12-06T06:52:37.226Z,11.47
2022-12-06T06:55:04.727Z,9.60
2022-12-06T06:57:31.636Z,15.13
2022-12-06T06:59:59.972Z,22.73
2022-12-06T07:02:30.146Z,24.10
2022-12-06T07:04:57.133Z,14.93
2022-12-06T07:07:24.137Z,14.23
2022-12-06T07:09:51.110Z,11.43
2022-12-06T07:12:17.980Z,14.43
2022-12-06T07:14:44.944Z,10.63
2022-12-06T07:17:13.858Z,7.20
2022-12-06T07:19:40.797Z,8.87
2022-12-06T07:22:07.638Z,9.63
2022-12-06T07:24:39.860Z,8.67
2022-12-06T07:27:08.849Z,7.67
2022-12-06T07:29:35.651Z,8.83
2022-12-06T07:32:02.497Z,7.20
2022-12-06T07:34:30.950Z,9.40
2022-12-06T07:36:57.954Z,9.70
2022-12-06T07:39:25.087Z,8.97
2022-12-06T07:41:52.182Z,9.47
2022-12-06T07:44:48.115Z,8.60
2022-12-06T07:47:15.040Z,12.17
2022-12-06T07:49:46.364Z,10.73
2022-12-06T07:52:13.212Z,11.53
2022-12-06T07:54:40.058Z,12.90
2022-12-06T07:57:06.895Z,12.40
2022-12-06T07:59:33.722Z,14.83
2022-12-06T08:02:00.796Z,10.07
2022-12-06T08:04:28.519Z,10.47
2022-12-06T08:06:56.945Z,8.03
2022-12-06T08:09:24.172Z,8.63
2022-12-06T08:11:51.032Z,8.07
2022-12-06T08:14:17.944Z,11.07
2022-12-06T08:16:44.819Z,9.47
2022-12-06T08:19:11.593Z,13.57
2022-12-06T08:21:38.426Z,9.47
2022-12-06T08:24:07.145Z,8.13
2022-12-06T08:26:34.163Z,12.00
2022-12-06T08:29:01.556Z,10.40
2022-12-06T08:31:30.213Z,10.60
2022-12-06T08:33:57.405Z,12.33
2022-12-06T08:36:24.612Z,9.03
2022-12-06T08:38:52.729Z,10.47
2022-12-06T08:41:22.179Z,9.27
2022-12-06T08:43:49.122Z,7.43
2022-12-06T08:46:15.968Z,10.63
2022-12-06T08:48:43.582Z,12.17
2022-12-06T08:51:10.879Z,9.10
2022-12-06T08:53:37.734Z,20.00
2022-12-06T08:56:05.163Z,11.13
2022-12-06T08:58:33.459Z,9.40
2022-12-06T09:01:00.288Z,9.43
2022-12-06T09:03:27.112Z,11.23
2022-12-06T09:05:53.946Z,15.77
2022-12-06T09:08:20.776Z,9.70
2022-12-06T09:10:47.588Z,10.23
2022-12-06T09:13:14.475Z,14.67
2022-12-06T09:15:42.664Z,10.33
2022-12-06T09:18:09.562Z,12.83
2022-12-06T09:20:39.523Z,9.07
2022-12-06T09:23:06.360Z,12.90
2022-12-06T09:25:33.369Z,16.23
2022-12-06T09:28:00.561Z,10.20
2022-12-06T09:30:27.498Z,9.73
2022-12-06T09:32:55.615Z,10.17
2022-12-06T09:35:25.258Z,9.30
2022-12-06T09:37:52.436Z,10.30
2022-12-06T09:40:30.542Z,9.47
2022-12-06T09:43:07.612Z,7.50
2022-12-06T09:46:02.921Z,8.60
2022-12-06T09:48:49.379Z,9.17
2022-12-06T09:51:26.003Z,8.10
2022-12-06T09:54:07.145Z,9.50
2022-12-06T09:56:38.027Z,12.00
2022-12-06T09:59:14.072Z,8.10
2022-12-06T10:01:56.762Z,7.40
2022-12-06T10:04:46.327Z,9.07
2022-12-06T10:07:22.892Z,8.93
2022-12-06T10:10:02.452Z,11.03
2022-12-06T10:12:43.854Z,7.70
2022-12-06T10:15:32.855Z,8.83
2022-12-06T10:18:19.092Z,10.43
2022-12-06T10:20:53.518Z,9.97
2022-12-06T10:23:36.471Z,7.40
2022-12-06T10:26:12.581Z,11.23
2022-12-06T10:28:44.007Z,7.17
2022-12-06T10:31:21.850Z,12.97
2022-12-06T10:33:55.272Z,7.90
2022-12-06T10:36:38.754Z,11.57
2022-12-06T10:39:12.720Z,12.70
2022-12-06T10:41:47.094Z,8.80
2022-12-06T10:44:22.226Z,8.57
2022-12-06T10:46:54.261Z,7.93
2022-12-06T10:49:31.786Z,9.23
2022-12-06T10:52:08.153Z,10.03
2022-12-06T10:54:41.564Z,8.93
2022-12-06T10:57:15.622Z,7.47
2022-12-06T10:59:49.250Z,10.57
2022-12-06T11:02:24.551Z,12.17
2022-12-06T11:04:57.696Z,12.37
2022-12-06T11:07:31.508Z,9.30
2022-12-06T11:09:59.523Z,10.57
2022-12-06T11:12:31.709Z,11.07
2022-12-06T11:15:04.061Z,11.20
2022-12-06T11:17:34.156Z,14.93
2022-12-06T11:20:04.284Z,9.70
2022-12-06T11:22:40.934Z,10.37
2022-12-06T11:25:17.312Z,13.80
2022-12-06T11:27:49.201Z,10.97
2022-12-06T11:30:20.269Z,10.83
2022-12-06T11:32:50.638Z,9.37
2022-12-06T11:35:21.512Z,15.87
2022-12-06T11:37:51.537Z,14.57
2022-12-06T11:40:22.825Z,15.37
2022-12-06T11:42:49.910Z,11.30
2022-12-06T11:45:24.207Z,11.27
2022-12-06T11:47:53.096Z,12.97
2022-12-06T11:50:20.603Z,14.20
2022-12-06T11:52:53.037Z,14.53
2022-12-06T11:55:23.987Z,13.73
2022-12-06T11:57:54.641Z,15.30
2022-12-06T12:00:23.766Z,13.97
2022-12-06T12:02:52.914Z,12.40
2022-12-06T12:05:22.797Z,14.43
2022-12-06T12:07:55.691Z,15.37
2022-12-06T12:10:31.518Z,11.03
2022-12-06T12:13:23.465Z,12.30
2022-12-06T12:15:58.453Z,10.13
2022-12-06T12:18:28.529Z,12.07
2022-12-06T12:20:57.232Z,10.43
2022-12-06T12:23:29.315Z,11.63
2022-12-06T12:26:01.794Z,12.47
2022-12-06T12:28:30.481Z,7.47
2022-12-06T12:30:58.847Z,14.23
2022-12-06T12:33:26.518Z,11.80
2022-12-06T12:36:13.906Z,11.93
2022-12-06T12:38:48.892Z,12.53
2022-12-06T12:41:26.200Z,20.23
2022-12-06T12:44:20.910Z,14.70
2022-12-06T12:46:52.929Z,13.60
2022-12-06T12:49:26.492Z,22.33
2022-12-06T12:51:53.639Z,15.67
2022-12-06T12:54:29.382Z,14.00
2022-12-06T12:56:56.890Z,15.43
2022-12-06T12:59:26.509Z,12.43
2022-12-06T13:01:58.356Z,13.87
2022-12-06T13:04:40.477Z,13.50
2022-12-06T13:07:14.425Z,9.73
2022-12-06T13:09:47.616Z,12.90
2022-12-06T13:12:19.353Z,13.57
2022-12-06T13:14:52.212Z,15.30
2022-12-06T13:17:20.535Z,10.83
2022-12-06T13:19:53.277Z,16.80
2022-12-06T13:22:23.976Z,5.43
2022-12-06T13:24:58.961Z,13.53
2022-12-06T13:27:27.148Z,10.00
2022-12-06T13:30:04.426Z,14.60
2022-12-06T13:32:36.251Z,14.80
2022-12-06T13:35:07.660Z,15.50
2022-12-06T13:37:37.246Z,11.83
2022-12-06T13:40:06.653Z,15.37
2022-12-06T13:42:45.232Z,16.10
2022-12-06T13:45:38.803Z,13.30
2022-12-06T13:48:37.922Z,18.93
2022-12-06T13:51:10.058Z,11.10
2022-12-06T13:54:15.346Z,17.27
2022-12-06T13:56:44.342Z,14.40
2022-12-06T13:59:38.056Z,19.30
2022-12-06T14:02:49.777Z,69.07
2022-12-06T14:08:34.974Z,14.00
2022-12-06T14:11:14.102Z,16.23
2022-12-06T14:13:44.230Z,16.77
2022-12-06T14:16:18.650Z,20.77
2022-12-06T14:18:45.979Z,16.00
2022-12-06T14:21:22.016Z,18.30
2022-12-06T14:23:48.902Z,18.80
2022-12-06T14:26:21.338Z,20.30
2022-12-06T14:28:51.924Z,18.20
2022-12-06T14:31:23.112Z,15.37
2022-12-06T14:33:50.401Z,17.97
2022-12-06T14:36:21.076Z,21.57
2022-12-06T14:38:53.631Z,11.97
2022-12-06T14:41:20.802Z,15.73
2022-12-06T14:43:49.008Z,16.23
2022-12-06T14:46:27.699Z,15.03
2022-12-06T14:48:54.614Z,14.13
2022-12-06T14:51:23.938Z,13.60
2022-12-06T14:53:51.313Z,17.30
2022-12-06T14:56:24.076Z,16.23
2022-12-06T14:59:00.630Z,16.77
2022-12-06T15:01:29.839Z,11.33
2022-12-06T15:03:58.645Z,17.17
2022-12-06T15:06:26.914Z,16.37
2022-12-06T15:09:10.643Z,16.90
2022-12-06T15:11:39.447Z,14.70
2022-12-06T15:14:16.313Z,16.53
2022-12-06T15:16:45.206Z,16.47
2022-12-06T15:19:13.611Z,19.83
2022-12-06T15:21:40.624Z,16.50
2022-12-06T15:24:16.719Z,16.13
2022-12-06T15:26:43.591Z,18.80
2022-12-06T15:29:10.450Z,18.87
2022-12-06T15:31:39.236Z,26.63
2022-12-06T15:34:24.024Z,21.40
2022-12-06T15:36:59.551Z,13.47
2022-12-06T15:39:36.083Z,22.93
2022-12-06T15:42:03.043Z,26.50
2022-12-06T15:44:29.837Z,21.80
2022-12-06T15:46:58.107Z,24.10
2022-12-06T15:49:25.690Z,18.83
2022-12-06T15:51:52.954Z,21.10
2022-12-06T15:54:22.136Z,19.50
2022-12-06T15:56:49.216Z,14.93
2022-12-06T15:59:16.217Z,26.73
2022-12-06T16:01:45.425Z,11.50
2022-12-06T16:04:17.966Z,16.73
2022-12-06T16:06:45.296Z,21.70
2022-12-06T16:09:13.708Z,21.20
2022-12-06T16:11:41.160Z,28.03
2022-12-06T16:14:08.359Z,23.90
2022-12-06T16:16:41.473Z,18.93
2022-12-06T16:19:10.094Z,20.87
2022-12-06T16:21:52.754Z,20.57
2022-12-06T16:24:19.938Z,19.63
2022-12-06T16:26:46.852Z,22.07
2022-12-06T16:29:15.601Z,25.83
2022-12-06T16:31:42.516Z,27.43
2022-12-06T16:34:09.463Z,25.87
2022-12-06T16:36:55.531Z,27.13
2022-12-06T16:39:22.376Z,26.53
2022-12-06T16:41:49.200Z,28.60
2022-12-06T16:44:16.079Z,31.07
2022-12-06T16:46:42.956Z,33.30
2022-12-06T16:49:44.547Z,35.37
2022-12-06T16:52:05.901Z,33.93
2022-12-06T16:54:32.763Z,25.50
2022-12-06T16:56:59.631Z,25.07
2022-12-06T16:59:26.470Z,27.17
2022-12-06T17:01:54.888Z,23.67
2022-12-06T17:04:22.510Z,24.23
2022-12-06T17:06:49.446Z,20.60
2022-12-06T17:09:17.666Z,18.03
2022-12-06T17:11:44.602Z,20.70
2022-12-06T17:14:11.873Z,19.37
2022-12-06T17:16:39.634Z,17.60
2022-12-06T17:19:08.502Z,22.93
2022-12-06T17:21:35.442Z,27.67
2022-12-06T17:24:02.423Z,24.30
2022-12-06T17:26:31.614Z,21.17
2022-12-06T17:28:58.642Z,26.57
2022-12-06T17:31:25.788Z,24.77
2022-12-06T17:33:52.798Z,24.47
2022-12-06T17:36:25.028Z,19.90
2022-12-06T17:38:52.248Z,22.23
2022-12-06T17:41:20.719Z,26.13
2022-12-06T17:43:48.963Z,23.27
2022-12-06T17:46:15.865Z,14.13
2022-12-06T17:48:44.653Z,18.17
2022-12-06T17:51:11.716Z,19.60
2022-12-06T17:53:38.583Z,31.17
2022-12-06T17:56:25.697Z,18.47
2022-12-06T17:58:55.529Z,15.90
2022-12-06T18:01:23.300Z,16.13
2022-12-06T18:03:51.385Z,20.50
2022-12-06T18:06:19.002Z,20.20
2022-12-06T18:08:45.860Z,21.40
2022-12-06T18:11:12.957Z,18.27
2022-12-06T18:13:39.826Z,19.03
2022-12-06T18:16:15.377Z,13.53
2022-12-06T18:18:42.423Z,21.03
2022-12-06T18:21:09.277Z,33.00
2022-12-06T18:23:40.950Z,23.30
2022-12-06T18:26:16.517Z,36.33
2022-12-06T18:28:44.773Z,24.50
2022-12-06T18:31:14.049Z,25.80
2022-12-06T18:33:40.947Z,17.57
2022-12-06T18:36:08.537Z,21.53
2022-12-06T18:38:35.584Z,14.90
2022-12-06T18:41:03.735Z,21.33
2022-12-06T18:43:30.711Z,22.10
2022-12-06T18:45:58.616Z,19.47
2022-12-06T18:48:27.323Z,22.93
2022-12-06T18:50:54.712Z,25.63
2022-12-06T18:53:22.249Z,17.53
2022-12-06T18:55:49.090Z,21.23
2022-12-06T18:58:16.153Z,21.73
2022-12-06T19:00:43.239Z,19.00
2022-12-06T19:03:10.395Z,20.30
2022-12-06T19:06:01.880Z,22.00
2022-12-06T19:08:25.470Z,21.30
2022-12-06T19:10:52.304Z,19.03
2022-12-06T19:13:19.081Z,18.73
2022-12-06T19:15:45.936Z,25.03
2022-12-06T19:18:12.783Z,21.30
2022-12-06T19:20:40.975Z,20.73
2022-12-06T19:23:11.736Z,15.97
2022-12-06T19:25:38.522Z,21.30
2022-12-06T19:28:06.378Z,30.93
2022-12-06T19:30:33.326Z,21.67
2022-12-06T19:33:00.189Z,21.33
2022-12-06T19:35:26.977Z,23.20
2022-12-06T19:37:55.220Z,21.40
2022-12-06T19:40:22.049Z,16.33
2022-12-06T19:42:48.847Z,20.33
2022-12-06T19:45:15.768Z,20.67
2022-12-06T19:47:42.554Z,15.87
2022-12-06T19:50:10.006Z,18.17
2022-12-06T19:52:36.841Z,27.77
2022-12-06T19:55:05.425Z,25.50
2022-12-06T19:57:32.471Z,24.80
2022-12-06T19:59:59.523Z,32.67
2022-12-06T20:02:26.726Z,21.13
2022-12-06T20:04:53.573Z,23.90
2022-12-06T20:07:20.522Z,18.67
2022-12-06T20:09:47.371Z,27.67
2022-12-06T20:12:15.629Z,19.13
2022-12-06T20:14:44.384Z,14.57
2022-12-06T20:17:13.320Z,29.87
2022-12-06T20:19:40.871Z,15.57
2022-12-06T20:22:07.734Z,25.23
2022-12-06T20:24:34.589Z,34.00
2022-12-06T20:27:01.859Z,16.93
2022-12-06T20:29:30.124Z,18.97
2022-12-06T20:31:58.274Z,14.13
2022-12-06T20:34:25.383Z,15.03
2022-12-06T20:36:52.435Z,21.50
2022-12-06T20:39:20.979Z,20.27
2022-12-06T20:41:48.752Z,14.10
2022-12-06T20:44:16.184Z,18.70
2022-12-06T20:46:45.142Z,21.33
2022-12-06T20:49:12.103Z,14.77
2022-12-06T20:51:38.981Z,13.87
2022-12-06T20:54:07.980Z,14.80
2022-12-06T20:56:37.464Z,19.83
2022-12-06T20:59:05.675Z,17.67
2022-12-06T21:01:35.539Z,18.27
2022-12-06T21:04:04.090Z,21.57
2022-12-06T21:06:31.148Z,24.27
2022-12-06T21:08:58.198Z,22.90
2022-12-06T21:11:25.733Z,23.90
2022-12-06T21:13:52.934Z,21.40
2022-12-06T21:16:22.843Z,18.13
2022-12-06T21:18:55.369Z,21.03
2022-12-06T21:21:25.641Z,25.20
2022-12-06T21:23:52.680Z,25.13
2022-12-06T21:26:19.633Z,29.20
2022-12-06T21:28:46.536Z,22.10
2022-12-06T21:31:13.553Z,15.97
2022-12-06T21:33:40.489Z,28.90
2022-12-06T21:36:07.827Z,30.57
2022-12-06T21:38:36.210Z,21.83
2022-12-06T21:41:07.933Z,24.40
2022-12-06T21:43:35.327Z,19.00
2022-12-06T21:46:07.322Z,25.77
2022-12-06T21:48:34.447Z,28.53
2022-12-06T21:51:02.613Z,32.67
2022-12-06T21:53:29.747Z,24.13
2022-12-06T21:55:58.290Z,17.90
2022-12-06T21:58:25.744Z,37.27
2022-12-06T22:00:52.739Z,21.83
2022-12-06T22:03:23.176Z,18.93
2022-12-06T22:05:50.480Z,23.40
2022-12-06T22:08:17.368Z,27.30
2022-12-06T22:10:44.278Z,26.70
2022-12-06T22:13:12.460Z,28.97
2022-12-06T22:15:39.368Z,26.47
2022-12-06T22:18:06.252Z,24.93
2022-12-06T22:20:33.100Z,21.80
2022-12-06T22:23:00.172Z,15.13
2022-12-06T22:25:27.126Z,17.00
2022-12-06T22:27:54.071Z,15.93
2022-12-06T22:30:22.414Z,17.30
2022-12-06T22:32:49.552Z,14.10
2022-12-06T22:35:16.648Z,16.30
2022-12-06T22:37:43.558Z,25.53
2022-12-06T22:40:11.055Z,26.90
2022-12-06T22:42:37.917Z,18.90
2022-12-06T22:45:05.932Z,15.57
2022-12-06T22:47:34.345Z,25.53
2022-12-06T22:50:01.363Z,25.10
2022-12-06T22:52:28.448Z,18.80
2022-12-06T22:54:55.288Z,18.90
2022-12-06T22:57:22.154Z,19.10
2022-12-06T22:59:54.544Z,18.13
2022-12-06T23:02:21.771Z,19.27
2022-12-06T23:04:50.012Z,17.33
2022-12-06T23:07:16.819Z,17.33
2022-12-06T23:09:43.792Z,15.33
2022-12-06T23:12:13.666Z,22.13
2022-12-06T23:14:40.594Z,21.53
2022-12-06T23:17:07.424Z,13.47
2022-12-06T23:19:34.416Z,17.00
2022-12-06T23:22:02.543Z,20.13
2022-12-06T23:24:29.326Z,14.73
2022-12-06T23:26:58.201Z,14.60
2022-12-06T23:29:25.463Z,19.67
2022-12-06T23:31:52.365Z,15.37
2022-12-06T23:34:21.126Z,15.07
2022-12-06T23:36:49.115Z,17.17
2022-12-06T23:39:17.394Z,18.33
2022-12-06T23:41:44.258Z,20.00
2022-12-06T23:44:12.576Z,18.90
2022-12-06T23:46:40.535Z,18.63
2022-12-06T23:49:11.564Z,14.67
2022-12-06T23:51:38.909Z,16.73
2022-12-06T23:54:07.916Z,14.97
2022-12-06T23:56:37.805Z,20.23
2022-12-06T23:59:06.862Z,15.60
